sensor_id;sensor_type;location;lat;lon;timestamp;pressure;altitude;pressure_sealevel;temperature;humidity
3968;BME280;9221;42.646;23.380;2023-09-08T10:16:16;94961.72;;;31.28;34.83
3968;BME280;9221;42.646;23.380;2023-09-08T10:18:46;94918.06;;;30.82;34.88
3968;BME280;9221;42.646;23.380;2023-09-08T10:21:13;94968.66;;;30.57;35.19
3968;BME280;9221;42.646;23.380;2023-09-08T10:23:44;94950.16;;;29.58;35.82
3968;BME280;9221;42.646;23.380;2023-09-08T10:26:17;94924.84;;;28.38;37.99
3968;BME280;9221;42.646;23.380;2023-09-08T10:28:43;94905.22;;;28.31;38.79
3968;BME280;9221;42.646;23.380;2023-09-08T10:31:09;94972.19;;;28.52;39.62
3968;BME280;9221;42.646;23.380;2023-09-08T10:33:36;94976.31;;;28.33;40.28
3968;BME280;9221;42.646;23.380;2023-09-08T10:36:03;94956.63;;;28.43;40.28
3968;BME280;9221;42.646;23.380;2023-09-08T10:38:34;94926.69;;;28.32;40.62
3968;BME280;9221;42.646;23.380;2023-09-08T10:43:39;94963.34;;;29.12;39.42
3968;BME280;9221;42.646;23.380;2023-09-08T10:46:09;94953.88;;;29.19;39.45
3968;BME280;9221;42.646;23.380;2023-09-08T10:48:44;94953.91;;;28.92;39.12
3968;BME280;9221;42.646;23.380;2023-09-08T10:51:13;94982.56;;;28.33;40.40
3968;BME280;9221;42.646;23.380;2023-09-08T10:53:39;94965.72;;;27.92;41.71
3968;BME280;9221;42.646;23.380;2023-09-08T10:56:05;94962.72;;;27.89;41.76
3968;BME280;9221;42.646;23.380;2023-09-08T10:58:35;94961.81;;;27.83;41.64
3968;BME280;9221;42.646;23.380;2023-09-08T11:01:06;94960.53;;;27.68;42.13
3968;BME280;9221;42.646;23.380;2023-09-08T11:06:06;94950.94;;;27.44;42.81
3968;BME280;9221;42.646;23.380;2023-09-08T11:08:37;94938.50;;;27.65;41.98
3968;BME280;9221;42.646;23.380;2023-09-08T11:11:03;94947.88;;;27.96;41.64
3968;BME280;9221;42.646;23.380;2023-09-08T11:13:28;94943.19;;;28.09;42.10
3968;BME280;9221;42.646;23.380;2023-09-08T11:15:54;94951.97;;;27.77;42.01
3968;BME280;9221;42.646;23.380;2023-09-08T11:18:30;94954.38;;;27.56;42.80
3968;BME280;9221;42.646;23.380;2023-09-08T11:20:56;94946.88;;;27.29;43.22
3968;BME280;9221;42.646;23.380;2023-09-08T11:23:23;94914.63;;;26.77;43.71
3968;BME280;9221;42.646;23.380;2023-09-08T11:25:50;94950.97;;;26.81;44.50
3968;BME280;9221;42.646;23.380;2023-09-08T11:28:17;94948.28;;;26.69;44.50
3968;BME280;9221;42.646;23.380;2023-09-08T11:30:43;94927.94;;;26.38;45.32
3968;BME280;9221;42.646;23.380;2023-09-08T11:33:18;94947.84;;;26.31;45.07
3968;BME280;9221;42.646;23.380;2023-09-08T11:35:47;94947.63;;;26.62;45.05
3968;BME280;9221;42.646;23.380;2023-09-08T11:38:13;94934.53;;;26.71;45.17
3968;BME280;9221;42.646;23.380;2023-09-08T11:40:39;94940.16;;;26.81;45.31
3968;BME280;9221;42.646;23.380;2023-09-08T11:43:05;94922.25;;;26.80;44.76
3968;BME280;9221;42.646;23.380;2023-09-08T11:45:34;94939.34;;;26.97;45.15
3968;BME280;9221;42.646;23.380;2023-09-08T11:48:00;94934.44;;;27.11;43.98
3968;BME280;9221;42.646;23.380;2023-09-08T11:50:25;94924.19;;;27.13;44.10
3968;BME280;9221;42.646;23.380;2023-09-08T11:52:52;94890.75;;;27.08;44.14
3968;BME280;9221;42.646;23.380;2023-09-08T11:55:19;94922.44;;;27.58;43.81
3968;BME280;9221;42.646;23.380;2023-09-08T11:57:49;94954.56;;;28.06;42.18
3968;BME280;9221;42.646;23.380;2023-09-08T12:00:17;94922.63;;;28.13;42.28
3968;BME280;9221;42.646;23.380;2023-09-08T12:02:44;94907.41;;;27.90;42.15
3968;BME280;9221;42.646;23.380;2023-09-08T12:05:20;94931.88;;;27.95;42.42
3968;BME280;9221;42.646;23.380;2023-09-08T12:07:50;94924.88;;;27.77;42.47
3968;BME280;9221;42.646;23.380;2023-09-08T12:10:16;94922.13;;;27.38;42.31
3968;BME280;9221;42.646;23.380;2023-09-08T12:12:49;94919.16;;;27.39;43.94
3968;BME280;9221;42.646;23.380;2023-09-08T12:17:57;94898.72;;;27.31;42.82
3968;BME280;9221;42.646;23.380;2023-09-08T12:20:22;94912.59;;;27.18;42.94
3968;BME280;9221;42.646;23.380;2023-09-08T12:22:51;94889.63;;;27.38;42.87
3968;BME280;9221;42.646;23.380;2023-09-08T12:25:17;94895.44;;;27.85;40.70
3968;BME280;9221;42.646;23.380;2023-09-08T12:27:42;94900.69;;;28.14;40.43
3968;BME280;9221;42.646;23.380;2023-09-08T12:30:08;94896.09;;;28.64;39.79
3968;BME280;9221;42.646;23.380;2023-09-08T12:32:35;94897.75;;;28.65;39.47
3968;BME280;9221;42.646;23.380;2023-09-08T12:35:03;94879.66;;;29.09;38.58
3968;BME280;9221;42.646;23.380;2023-09-08T12:37:29;94898.00;;;28.96;38.73
3968;BME280;9221;42.646;23.380;2023-09-08T12:39:56;94876.22;;;28.31;39.62
3968;BME280;9221;42.646;23.380;2023-09-08T12:42:22;94887.63;;;28.11;40.04
3968;BME280;9221;42.646;23.380;2023-09-08T12:44:51;94886.31;;;28.63;39.75
3968;BME280;9221;42.646;23.380;2023-09-08T12:47:17;94879.66;;;29.09;39.10
3968;BME280;9221;42.646;23.380;2023-09-08T12:49:42;94817.03;;;28.83;38.20
3968;BME280;9221;42.646;23.380;2023-09-08T12:52:08;94877.72;;;29.36;37.54
3968;BME280;9221;42.646;23.380;2023-09-08T12:54:34;94872.81;;;29.38;37.79
3968;BME280;9221;42.646;23.380;2023-09-08T12:57:00;94875.78;;;28.99;37.21
3968;BME280;9221;42.646;23.380;2023-09-08T12:59:26;94888.47;;;28.61;38.15
3968;BME280;9221;42.646;23.380;2023-09-08T13:01:51;94872.22;;;28.12;38.29
3968;BME280;9221;42.646;23.380;2023-09-08T13:04:16;94879.22;;;27.68;39.33
3968;BME280;9221;42.646;23.380;2023-09-08T13:06:42;94881.59;;;27.26;40.51
3968;BME280;9221;42.646;23.380;2023-09-08T13:09:08;94878.22;;;27.01;40.97
3968;BME280;9221;42.646;23.380;2023-09-08T13:11:33;94878.47;;;26.83;41.32
3968;BME280;9221;42.646;23.380;2023-09-08T13:13:59;94879.75;;;26.80;41.90
3968;BME280;9221;42.646;23.380;2023-09-08T13:16:24;94869.81;;;26.52;41.76
3968;BME280;9221;42.646;23.380;2023-09-08T13:18:50;94882.19;;;26.65;41.91
3968;BME280;9221;42.646;23.380;2023-09-08T13:21:16;94878.88;;;26.46;41.88
3968;BME280;9221;42.646;23.380;2023-09-08T13:23:42;94885.16;;;26.34;42.60
3968;BME280;9221;42.646;23.380;2023-09-08T13:26:07;94887.53;;;26.31;42.68
3968;BME280;9221;42.646;23.380;2023-09-08T13:28:33;94879.63;;;26.58;42.61
3968;BME280;9221;42.646;23.380;2023-09-08T13:30:58;94871.84;;;26.74;42.47
3968;BME280;9221;42.646;23.380;2023-09-08T13:33:23;94860.09;;;26.85;41.91
3968;BME280;9221;42.646;23.380;2023-09-08T13:35:49;94875.44;;;26.79;42.17
3968;BME280;9221;42.646;23.380;2023-09-08T13:38:14;94875.84;;;26.88;42.38
3968;BME280;9221;42.646;23.380;2023-09-08T13:40:40;94877.91;;;26.81;42.14
3968;BME280;9221;42.646;23.380;2023-09-08T13:43:06;94873.31;;;26.69;42.90
3968;BME280;9221;42.646;23.380;2023-09-08T13:45:32;94869.88;;;26.57;42.12
3968;BME280;9221;42.646;23.380;2023-09-08T13:47:58;94921.38;;;26.62;42.32
3968;BME280;9221;42.646;23.380;2023-09-08T13:50:23;94878.75;;;26.69;41.84
3968;BME280;9221;42.646;23.380;2023-09-08T13:52:49;94877.44;;;26.55;42.09
3968;BME280;9221;42.646;23.380;2023-09-08T13:55:14;94881.38;;;26.64;42.18
3968;BME280;9221;42.646;23.380;2023-09-08T13:57:40;94873.53;;;26.80;42.32
3968;BME280;9221;42.646;23.380;2023-09-08T14:00:06;94873.56;;;26.68;42.26
3968;BME280;9221;42.646;23.380;2023-09-08T14:02:34;94852.69;;;26.63;42.56
3968;BME280;9221;42.646;23.380;2023-09-08T14:04:59;94853.53;;;26.81;42.47
3968;BME280;9221;42.646;23.380;2023-09-08T14:07:25;94869.28;;;26.84;41.63
3968;BME280;9221;42.646;23.380;2023-09-08T14:09:50;94872.81;;;26.56;42.08
3968;BME280;9221;42.646;23.380;2023-09-08T14:12:15;94827.03;;;26.20;42.21
3968;BME280;9221;42.646;23.380;2023-09-08T14:14:41;94862.88;;;26.27;42.39
3968;BME280;9221;42.646;23.380;2023-09-08T14:17:06;94862.66;;;26.46;42.63
3968;BME280;9221;42.646;23.380;2023-09-08T14:19:32;94860.84;;;26.34;43.25
3968;BME280;9221;42.646;23.380;2023-09-08T14:21:57;94870.56;;;26.64;43.03
3968;BME280;9221;42.646;23.380;2023-09-08T14:24:23;94874.34;;;26.80;41.52
3968;BME280;9221;42.646;23.380;2023-09-08T14:26:48;94859.75;;;26.64;41.38
3968;BME280;9221;42.646;23.380;2023-09-08T14:29:13;94860.66;;;26.70;41.59
3968;BME280;9221;42.646;23.380;2023-09-08T14:31:39;94865.84;;;26.72;41.41
3968;BME280;9221;42.646;23.380;2023-09-08T14:34:04;94862.81;;;26.85;41.15
3968;BME280;9221;42.646;23.380;2023-09-08T14:36:30;94855.69;;;26.96;41.45
3968;BME280;9221;42.646;23.380;2023-09-08T14:38:55;94855.69;;;26.96;40.56
3968;BME280;9221;42.646;23.380;2023-09-08T14:41:21;94852.19;;;26.66;42.04
3968;BME280;9221;42.646;23.380;2023-09-08T14:43:46;94852.78;;;26.68;42.28
3968;BME280;9221;42.646;23.380;2023-09-08T14:46:12;94847.28;;;26.80;42.58
3968;BME280;9221;42.646;23.380;2023-09-08T14:48:37;94848.78;;;26.88;42.02
3968;BME280;9221;42.646;23.380;2023-09-08T14:51:03;94846.47;;;26.80;42.00
3968;BME280;9221;42.646;23.380;2023-09-08T14:53:29;94860.78;;;26.63;41.91
3968;BME280;9221;42.646;23.380;2023-09-08T14:55:57;94833.94;;;26.45;41.76
3968;BME280;9221;42.646;23.380;2023-09-08T14:58:23;94843.22;;;26.32;42.33
3968;BME280;9221;42.646;23.380;2023-09-08T15:00:48;94844.00;;;26.32;42.48
3968;BME280;9221;42.646;23.380;2023-09-08T15:03:14;94851.94;;;26.51;42.28
3968;BME280;9221;42.646;23.380;2023-09-08T15:05:39;94843.56;;;26.69;43.01
3968;BME280;9221;42.646;23.380;2023-09-08T15:08:06;94843.00;;;26.67;42.80
3968;BME280;9221;42.646;23.380;2023-09-08T15:10:31;94838.78;;;26.72;42.67
3968;BME280;9221;42.646;23.380;2023-09-08T15:12:57;94848.91;;;26.64;42.28
3968;BME280;9221;42.646;23.380;2023-09-08T15:15:22;94837.34;;;26.52;42.30
3968;BME280;9221;42.646;23.380;2023-09-08T15:17:54;94848.47;;;26.39;42.18
3968;BME280;9221;42.646;23.380;2023-09-08T15:20:20;94849.81;;;26.24;42.36
3968;BME280;9221;42.646;23.380;2023-09-08T15:22:45;94852.06;;;26.27;42.72
3968;BME280;9221;42.646;23.380;2023-09-08T15:25:11;94851.47;;;26.25;42.35
3968;BME280;9221;42.646;23.380;2023-09-08T15:27:37;94844.09;;;26.21;42.37
3968;BME280;9221;42.646;23.380;2023-09-08T15:30:03;94851.47;;;26.25;42.71
3968;BME280;9221;42.646;23.380;2023-09-08T15:32:28;94851.28;;;26.15;42.82
3968;BME280;9221;42.646;23.380;2023-09-08T15:34:53;94847.69;;;25.97;43.31
3968;BME280;9221;42.646;23.380;2023-09-08T15:37:19;94849.28;;;25.98;43.71
3968;BME280;9221;42.646;23.380;2023-09-08T15:39:44;94844.56;;;26.17;43.63
3968;BME280;9221;42.646;23.380;2023-09-08T15:42:12;94851.97;;;26.39;43.51
3968;BME280;9221;42.646;23.380;2023-09-08T15:44:37;94848.56;;;26.44;43.52
3968;BME280;9221;42.646;23.380;2023-09-08T15:47:03;94841.25;;;26.27;43.87
3968;BME280;9221;42.646;23.380;2023-09-08T15:49:28;94843.44;;;26.30;43.87
3968;BME280;9221;42.646;23.380;2023-09-08T15:51:53;94848.19;;;26.23;43.79
3968;BME280;9221;42.646;23.380;2023-09-08T15:54:19;94845.38;;;26.18;44.14
3968;BME280;9221;42.646;23.380;2023-09-08T15:56:46;94839.78;;;26.08;44.42
3968;BME280;9221;42.646;23.380;2023-09-08T15:59:13;94839.78;;;26.08;44.41
3968;BME280;9221;42.646;23.380;2023-09-08T16:01:38;94842.84;;;25.99;44.53
3968;BME280;9221;42.646;23.380;2023-09-08T16:04:04;94840.88;;;25.95;45.21
3968;BME280;9221;42.646;23.380;2023-09-08T16:06:34;94832.91;;;25.88;44.98
3968;BME280;9221;42.646;23.380;2023-09-08T16:08:59;94835.69;;;26.05;44.98
3968;BME280;9221;42.646;23.380;2023-09-08T16:11:25;94845.88;;;26.15;44.79
3968;BME280;9221;42.646;23.380;2023-09-08T16:13:50;94829.91;;;26.01;45.17
3968;BME280;9221;42.646;23.380;2023-09-08T16:16:17;94836.69;;;26.16;45.41
3968;BME280;9221;42.646;23.380;2023-09-08T16:18:42;94848.97;;;25.95;44.83
3968;BME280;9221;42.646;23.380;2023-09-08T16:21:08;94842.16;;;25.92;45.46
3968;BME280;9221;42.646;23.380;2023-09-08T16:23:33;94837.94;;;25.84;45.51
3968;BME280;9221;42.646;23.380;2023-09-08T16:25:59;94831.91;;;25.65;46.21
3968;BME280;9221;42.646;23.380;2023-09-08T16:28:24;94831.69;;;25.55;46.20
3968;BME280;9221;42.646;23.380;2023-09-08T16:30:50;94842.03;;;25.58;46.04
3968;BME280;9221;42.646;23.380;2023-09-08T16:33:15;94823.28;;;25.40;46.52
3968;BME280;9221;42.646;23.380;2023-09-08T16:35:40;94849.31;;;25.46;46.33
3968;BME280;9221;42.646;23.380;2023-09-08T16:38:07;94842.28;;;25.45;46.84
3968;BME280;9221;42.646;23.380;2023-09-08T16:40:33;94857.78;;;25.14;47.21
3968;BME280;9221;42.646;23.380;2023-09-08T16:42:58;94847.34;;;25.06;47.40
3968;BME280;9221;42.646;23.380;2023-09-08T16:45:28;94842.28;;;24.97;48.28
3968;BME280;9221;42.646;23.380;2023-09-08T16:47:53;94846.03;;;24.96;48.24
3968;BME280;9221;42.646;23.380;2023-09-08T16:50:18;94844.75;;;24.99;48.42
3968;BME280;9221;42.646;23.380;2023-09-08T16:52:44;94847.09;;;24.95;48.36
3968;BME280;9221;42.646;23.380;2023-09-08T16:55:09;94844.88;;;24.92;48.66
3968;BME280;9221;42.646;23.380;2023-09-08T16:57:37;94849.31;;;24.87;48.66
3968;BME280;9221;42.646;23.380;2023-09-08T17:00:03;94856.22;;;24.71;48.74
3968;BME280;9221;42.646;23.380;2023-09-08T17:02:29;94851.31;;;24.49;49.24
3968;BME280;9221;42.646;23.380;2023-09-08T17:04:54;94855.66;;;24.50;49.76
3968;BME280;9221;42.646;23.380;2023-09-08T17:07:20;94853.63;;;24.33;50.09
3968;BME280;9221;42.646;23.380;2023-09-08T17:09:45;94833.19;;;24.14;50.23
3968;BME280;9221;42.646;23.380;2023-09-08T17:12:10;94855.47;;;24.21;50.85
3968;BME280;9221;42.646;23.380;2023-09-08T17:14:36;94864.03;;;24.18;50.42
3968;BME280;9221;42.646;23.380;2023-09-08T17:17:01;94860.88;;;24.21;50.75
3968;BME280;9221;42.646;23.380;2023-09-08T17:19:27;94860.81;;;24.09;50.47
3968;BME280;9221;42.646;23.380;2023-09-08T17:21:53;94860.44;;;24.06;51.01
3968;BME280;9221;42.646;23.380;2023-09-08T17:24:18;94873.19;;;23.98;51.51
3968;BME280;9221;42.646;23.380;2023-09-08T17:26:44;94834.28;;;23.57;52.06
3968;BME280;9221;42.646;23.380;2023-09-08T17:29:09;94882.88;;;23.81;52.07
3968;BME280;9221;42.646;23.380;2023-09-08T17:31:35;94865.19;;;23.55;52.74
3968;BME280;9221;42.646;23.380;2023-09-08T17:34:00;94878.63;;;23.55;52.64
3968;BME280;9221;42.646;23.380;2023-09-08T17:36:25;94877.66;;;23.49;53.23
3968;BME280;9221;42.646;23.380;2023-09-08T17:38:51;94880.50;;;23.36;53.81
3968;BME280;9221;42.646;23.380;2023-09-08T17:41:17;94882.66;;;23.27;54.31
3968;BME280;9221;42.646;23.380;2023-09-08T17:43:42;94883.94;;;23.24;54.15
3968;BME280;9221;42.646;23.380;2023-09-08T17:46:07;94870.41;;;23.06;54.89
3968;BME280;9221;42.646;23.380;2023-09-08T17:48:33;94897.06;;;22.89;56.44
3968;BME280;9221;42.646;23.380;2023-09-08T17:50:58;94887.25;;;22.76;56.53
3968;BME280;9221;42.646;23.380;2023-09-08T17:53:24;94887.69;;;22.66;57.40
3968;BME280;9221;42.646;23.380;2023-09-08T17:55:49;94894.00;;;22.53;57.64
3968;BME280;9221;42.646;23.380;2023-09-08T17:58:14;94894.44;;;22.50;57.92
3968;BME280;9221;42.646;23.380;2023-09-08T18:00:40;94898.38;;;22.47;57.99
3968;BME280;9221;42.646;23.380;2023-09-08T18:03:07;94882.56;;;22.26;58.31
3968;BME280;9221;42.646;23.380;2023-09-08T18:05:32;94911.31;;;22.25;58.75
3968;BME280;9221;42.646;23.380;2023-09-08T18:07:57;94904.53;;;22.16;59.24
3968;BME280;9221;42.646;23.380;2023-09-08T18:10:24;94905.81;;;22.07;59.39
3968;BME280;9221;42.646;23.380;2023-09-08T18:12:49;94896.75;;;22.01;59.32
3968;BME280;9221;42.646;23.380;2023-09-08T18:15:15;94893.06;;;21.95;59.62
3968;BME280;9221;42.646;23.380;2023-09-08T18:17:41;94910.34;;;22.13;59.19
3968;BME280;9221;42.646;23.380;2023-09-08T18:20:06;94902.09;;;22.08;59.64
3968;BME280;9221;42.646;23.380;2023-09-08T18:22:32;94907.09;;;21.97;60.27
3968;BME280;9221;42.646;23.380;2023-09-08T18:24:57;94917.00;;;22.04;59.47
3968;BME280;9221;42.646;23.380;2023-09-08T18:27:24;94914.06;;;22.12;59.69
3968;BME280;9221;42.646;23.380;2023-09-08T18:29:51;94928.53;;;22.11;59.56
3968;BME280;9221;42.646;23.380;2023-09-08T18:32:17;94920.25;;;22.12;59.57
3968;BME280;9221;42.646;23.380;2023-09-08T18:34:42;94918.25;;;22.01;60.04
3968;BME280;9221;42.646;23.380;2023-09-08T18:37:08;94914.97;;;21.92;60.26
3968;BME280;9221;42.646;23.380;2023-09-08T18:39:34;94902.84;;;21.83;61.07
3968;BME280;9221;42.646;23.380;2023-09-08T18:41:59;94916.38;;;22.02;60.67
3968;BME280;9221;42.646;23.380;2023-09-08T18:44:24;94906.75;;;21.87;60.82
3968;BME280;9221;42.646;23.380;2023-09-08T18:46:50;94910.03;;;21.89;61.04
3968;BME280;9221;42.646;23.380;2023-09-08T18:49:15;94924.94;;;21.78;61.35
3968;BME280;9221;42.646;23.380;2023-09-08T18:51:41;94900.63;;;21.67;62.00
3968;BME280;9221;42.646;23.380;2023-09-08T18:54:06;94913.84;;;21.61;61.76
3968;BME280;9221;42.646;23.380;2023-09-08T18:56:32;94899.19;;;21.57;62.13
3968;BME280;9221;42.646;23.380;2023-09-08T18:58:57;94910.97;;;21.56;62.24
3968;BME280;9221;42.646;23.380;2023-09-08T19:01:23;94878.75;;;21.43;62.34
3968;BME280;9221;42.646;23.380;2023-09-08T19:03:48;94884.13;;;21.56;62.21
3968;BME280;9221;42.646;23.380;2023-09-08T19:06:13;94892.38;;;21.55;61.86
3968;BME280;9221;42.646;23.380;2023-09-08T19:08:40;94904.31;;;21.72;61.95
3968;BME280;9221;42.646;23.380;2023-09-08T19:11:06;94893.16;;;21.69;61.94
3968;BME280;9221;42.646;23.380;2023-09-08T19:13:31;94894.81;;;21.70;62.11
3968;BME280;9221;42.646;23.380;2023-09-08T19:15:57;94905.56;;;21.70;62.42
3968;BME280;9221;42.646;23.380;2023-09-08T19:18:22;94901.59;;;21.79;61.82
3968;BME280;9221;42.646;23.380;2023-09-08T19:20:47;94899.28;;;21.89;61.83
3968;BME280;9221;42.646;23.380;2023-09-08T19:23:13;94901.38;;;21.87;61.66
3968;BME280;9221;42.646;23.380;2023-09-08T19:25:39;94907.78;;;21.86;61.96
3968;BME280;9221;42.646;23.380;2023-09-08T19:28:06;94865.09;;;21.64;61.89
3968;BME280;9221;42.646;23.380;2023-09-08T19:30:32;94918.50;;;21.86;62.26
3968;BME280;9221;42.646;23.380;2023-09-08T19:32:57;94872.56;;;21.62;62.40
3968;BME280;9221;42.646;23.380;2023-09-08T19:35:23;94926.56;;;21.86;62.37
3968;BME280;9221;42.646;23.380;2023-09-08T19:37:48;94876.28;;;21.61;62.20
3968;BME280;9221;42.646;23.380;2023-09-08T19:40:13;94910.88;;;21.83;63.02
3968;BME280;9221;42.646;23.380;2023-09-08T19:42:39;94920.81;;;21.76;62.98
3968;BME280;9221;42.646;23.380;2023-09-08T19:45:04;94920.41;;;21.79;62.94
3968;BME280;9221;42.646;23.380;2023-09-08T19:47:30;94935.06;;;21.76;63.15
3968;BME280;9221;42.646;23.380;2023-09-08T19:49:55;94912.63;;;21.57;63.81
3968;BME280;9221;42.646;23.380;2023-09-08T19:52:21;94925.41;;;21.42;64.47
3968;BME280;9221;42.646;23.380;2023-09-08T19:54:46;94941.72;;;21.34;64.71
3968;BME280;9221;42.646;23.380;2023-09-08T19:57:12;94923.19;;;21.19;65.48
3968;BME280;9221;42.646;23.380;2023-09-08T19:59:38;94926.69;;;21.19;65.56
3968;BME280;9221;42.646;23.380;2023-09-08T20:02:07;94926.06;;;21.30;65.26
3968;BME280;9221;42.646;23.380;2023-09-08T20:04:33;94925.44;;;21.28;65.62
3968;BME280;9221;42.646;23.380;2023-09-08T20:06:59;94925.03;;;21.18;65.52
3968;BME280;9221;42.646;23.380;2023-09-08T20:09:24;94930.59;;;21.23;65.44
3968;BME280;9221;42.646;23.380;2023-09-08T20:11:51;94907.69;;;21.21;65.38
3968;BME280;9221;42.646;23.380;2023-09-08T20:14:17;94931.63;;;21.36;64.69
3968;BME280;9221;42.646;23.380;2023-09-08T20:16:42;94907.69;;;21.27;64.87
3968;BME280;9221;42.646;23.380;2023-09-08T20:19:08;94927.91;;;21.37;64.36
3968;BME280;9221;42.646;23.380;2023-09-08T20:21:33;94939.44;;;21.44;64.05
3968;BME280;9221;42.646;23.380;2023-09-08T20:23:58;94930.38;;;21.45;64.38
3968;BME280;9221;42.646;23.380;2023-09-08T20:26:26;94910.13;;;21.49;63.88
3968;BME280;9221;42.646;23.380;2023-09-08T20:28:52;94928.72;;;21.57;63.21
3968;BME280;9221;42.646;23.380;2023-09-08T20:31:18;94920.25;;;21.34;64.23
3968;BME280;9221;42.646;23.380;2023-09-08T20:33:45;94915.94;;;21.33;64.27
3968;BME280;9221;42.646;23.380;2023-09-08T20:36:11;94926.84;;;21.38;64.24
3968;BME280;9221;42.646;23.380;2023-09-08T20:38:36;94895.75;;;21.23;64.15
3968;BME280;9221;42.646;23.380;2023-09-08T20:41:03;94940.09;;;21.46;64.17
3968;BME280;9221;42.646;23.380;2023-09-08T20:43:28;94948.75;;;21.41;64.18
3968;BME280;9221;42.646;23.380;2023-09-08T20:45:55;94946.06;;;21.41;64.43
3968;BME280;9221;42.646;23.380;2023-09-08T20:48:22;94945.25;;;21.27;65.18
3968;BME280;9221;42.646;23.380;2023-09-08T20:50:48;94947.31;;;21.25;65.16
3968;BME280;9221;42.646;23.380;2023-09-08T20:53:22;94947.31;;;21.25;65.48
3968;BME280;9221;42.646;23.380;2023-09-08T20:55:48;94959.69;;;21.26;65.59
3968;BME280;9221;42.646;23.380;2023-09-08T20:58:13;94958.44;;;21.36;65.22
3968;BME280;9221;42.646;23.380;2023-09-08T21:00:38;94932.47;;;21.23;65.67
3968;BME280;9221;42.646;23.380;2023-09-08T21:03:04;94958.88;;;21.33;66.04
3968;BME280;9221;42.646;23.380;2023-09-08T21:05:29;94954.53;;;21.32;65.67
3968;BME280;9221;42.646;23.380;2023-09-08T21:07:55;94949.38;;;21.30;66.10
3968;BME280;9221;42.646;23.380;2023-09-08T21:10:20;94959.69;;;21.26;66.17
3968;BME280;9221;42.646;23.380;2023-09-08T21:12:45;94953.31;;;21.14;67.07
3968;BME280;9221;42.646;23.380;2023-09-08T21:15:11;94947.13;;;21.13;66.52
3968;BME280;9221;42.646;23.380;2023-09-08T21:17:36;94953.31;;;21.14;66.61
3968;BME280;9221;42.646;23.380;2023-09-08T21:20:02;94948.16;;;21.19;66.79
3968;BME280;9221;42.646;23.380;2023-09-08T21:22:29;94958.28;;;21.10;67.22
3968;BME280;9221;42.646;23.380;2023-09-08T21:24:54;94952.88;;;21.17;67.05
3968;BME280;9221;42.646;23.380;2023-09-08T21:27:20;94945.69;;;21.11;67.07
3968;BME280;9221;42.646;23.380;2023-09-08T21:29:45;94965.06;;;21.13;67.22
3968;BME280;9221;42.646;23.380;2023-09-08T21:32:11;94964.66;;;20.96;68.00
3968;BME280;9221;42.646;23.380;2023-09-08T21:34:36;94958.47;;;20.82;68.91
3968;BME280;9221;42.646;23.380;2023-09-08T21:37:02;94962.19;;;20.88;69.04
3968;BME280;9221;42.646;23.380;2023-09-08T21:39:27;94967.34;;;20.96;68.81
3968;BME280;9221;42.646;23.380;2023-09-08T21:41:52;94909.38;;;20.75;68.59
3968;BME280;9221;42.646;23.380;2023-09-08T21:44:19;94939.88;;;21.01;68.68
3968;BME280;9221;42.646;23.380;2023-09-08T21:46:45;94949.38;;;20.90;68.97
3968;BME280;9221;42.646;23.380;2023-09-08T21:49:10;94949.38;;;20.96;68.89
3968;BME280;9221;42.646;23.380;2023-09-08T21:51:35;94939.91;;;20.74;69.51
3968;BME280;9221;42.646;23.380;2023-09-08T21:54:01;94950.13;;;20.57;70.59
3968;BME280;9221;42.646;23.380;2023-09-08T21:56:26;94949.28;;;20.43;71.59
3968;BME280;9221;42.646;23.380;2023-09-08T21:58:51;94907.19;;;20.10;72.20
3968;BME280;9221;42.646;23.380;2023-09-08T22:01:17;94954.41;;;20.38;72.63
3968;BME280;9221;42.646;23.380;2023-09-08T22:03:42;94952.59;;;20.38;72.89
3968;BME280;9221;42.646;23.380;2023-09-08T22:06:08;94947.19;;;20.25;73.22
3968;BME280;9221;42.646;23.380;2023-09-08T22:08:33;94921.34;;;19.90;73.73
3968;BME280;9221;42.646;23.380;2023-09-08T22:11:07;94960.72;;;20.10;74.42
3968;BME280;9221;42.646;23.380;2023-09-08T22:13:32;94945.47;;;20.04;74.64
3968;BME280;9221;42.646;23.380;2023-09-08T22:16:01;94952.41;;;19.91;74.93
3968;BME280;9221;42.646;23.380;2023-09-08T22:18:27;94923.53;;;19.80;75.39
3968;BME280;9221;42.646;23.380;2023-09-08T22:20:53;94902.50;;;19.77;74.73
3968;BME280;9221;42.646;23.380;2023-09-08T22:23:19;94958.72;;;20.25;74.13
3968;BME280;9221;42.646;23.380;2023-09-08T22:25:44;94958.34;;;20.28;74.03
3968;BME280;9221;42.646;23.380;2023-09-08T22:28:28;94956.34;;;19.95;74.96
3968;BME280;9221;42.646;23.380;2023-09-08T22:30:53;94947.53;;;20.02;74.84
3968;BME280;9221;42.646;23.380;2023-09-08T22:33:19;94947.53;;;20.02;74.72
3968;BME280;9221;42.646;23.380;2023-09-08T22:35:44;94951.97;;;19.81;75.44
3968;BME280;9221;42.646;23.380;2023-09-08T22:38:10;94948.28;;;19.82;76.16
3968;BME280;9221;42.646;23.380;2023-09-08T22:40:35;94942.44;;;19.78;76.28
3968;BME280;9221;42.646;23.380;2023-09-08T22:43:01;94938.72;;;19.73;77.08
3968;BME280;9221;42.646;23.380;2023-09-08T22:45:27;94950.75;;;19.84;76.51
3968;BME280;9221;42.646;23.380;2023-09-08T22:47:53;94954.03;;;19.86;76.43
3968;BME280;9221;42.646;23.380;2023-09-08T22:50:20;94959.84;;;19.96;76.40
3968;BME280;9221;42.646;23.380;2023-09-08T22:52:45;94953.84;;;19.87;76.73
3968;BME280;9221;42.646;23.380;2023-09-08T22:55:10;94954.47;;;19.89;77.17
3968;BME280;9221;42.646;23.380;2023-09-08T22:57:36;94957.59;;;19.93;76.60
3968;BME280;9221;42.646;23.380;2023-09-08T23:00:01;94970.28;;;19.84;76.96
3968;BME280;9221;42.646;23.380;2023-09-08T23:02:27;94958.06;;;19.75;77.33
3968;BME280;9221;42.646;23.380;2023-09-08T23:04:52;94971.25;;;19.70;77.59
3968;BME280;9221;42.646;23.380;2023-09-08T23:07:18;94957.22;;;19.68;77.88
3968;BME280;9221;42.646;23.380;2023-09-08T23:09:43;94961.75;;;19.67;78.18
3968;BME280;9221;42.646;23.380;2023-09-08T23:12:09;94956.19;;;19.69;78.19
3968;BME280;9221;42.646;23.380;2023-09-08T23:14:37;94954.28;;;19.62;78.38
3968;BME280;9221;42.646;23.380;2023-09-08T23:17:03;94934.06;;;19.47;78.77
3968;BME280;9221;42.646;23.380;2023-09-08T23:19:29;94899.41;;;19.32;78.70
3968;BME280;9221;42.646;23.380;2023-09-08T23:21:54;94927.06;;;19.45;78.88
3968;BME280;9221;42.646;23.380;2023-09-08T23:24:21;94927.50;;;19.49;78.95
3968;BME280;9221;42.646;23.380;2023-09-08T23:26:46;94945.66;;;19.60;78.92